Date,TemperatureHighF,TemperatureAvgF,TemperatureLowF,DewpointHighF,DewpointAvgF,DewpointLowF,HumidityHigh,HumidityAvg,HumidityLow,PressureMaxIn,PressureMinIn,WindSpeedMaxMPH,WindSpeedAvgMPH,GustSpeedMaxMPH,PrecipitationSumIn
2013-1-1,44.4,40.7,36.4,44.4,40.7,36.1,100,100,99,30.32,30.09,23,11,23,0.00
2013-1-2,38.9,35.5,32.6,36.0,34.2,32.6,100,95,85,30.37,30.29,17,7,17,0.00
2013-1-3,48.9,38.7,29.2,42.3,33.6,29.2,100,84,56,30.48,30.36,25,9,25,0.00
2013-1-4,49.9,43.4,38.5,38.8,35.7,33.3,92,75,59,30.55,30.39,12,5,12,0.00
2013-1-5,51.4,43.5,37.4,45.7,41.7,33.4,100,94,74,30.40,30.26,17,7,17,0.01
2013-1-6,57.2,44.0,32.8,40.3,34.9,30.6,100,74,43,30.42,30.32,23,8,23,0.00
2013-1-7,56.7,44.4,32.6,41.2,34.5,26.3,85,69,54,30.38,30.16,17,8,18,0.00
2013-1-8,49.1,46.3,34.5,49.1,44.4,22.8,100,93,74,30.16,30.01,18,9,18,0.43
2013-1-9,54.9,52.4,47.7,54.8,52.4,47.6,100,100,100,30.18,30.01,43,17,43,1.04
2013-1-10,62.3,54.2,48.7,58.3,52.8,48.6,100,95,75,30.06,29.97,31,16,31,0.00
2013-1-11,72.0,58.3,46.5,65.2,54.9,46.5,100,90,63,30.02,29.84,40,15,41,0.00
2013-1-12,73.5,55.7,35.9,73.5,55.7,35.6,100,100,100,29.98,29.71,36,14,36,0.02
2013-1-13,43.6,35.5,29.3,36.7,30.5,25.1,100,83,64,30.30,29.96,32,16,33,0.05
2013-1-14,42.9,34.0,26.7,33.0,28.2,24.6,94,80,65,30.37,30.24,29,14,29,0.00
2013-1-15,36.2,32.4,27.8,33.3,29.9,26.6,100,91,78,30.26,30.18,29,12,29,0.02
2013-1-16,48.2,37.4,28.5,30.3,27.5,24.3,89,69,47,30.32,30.19,16,7,16,0.10
2013-1-17,60.4,46.0,34.5,42.6,35.5,28.2,87,68,46,30.52,30.27,24,8,24,0.00
2013-1-18,61.5,48.0,35.6,44.0,39.0,33.1,98,72,50,30.53,30.31,25,10,25,0.00
2013-1-19,64.3,50.7,38.7,52.3,46.2,38.7,100,86,58,30.31,30.18,29,13,29,0.00
2013-1-20,68.6,54.1,41.5,54.9,49.0,41.4,100,85,56,30.26,30.10,21,7,21,0.00
2013-1-21,58.7,47.5,37.0,51.2,40.6,31.1,100,78,56,30.32,30.16,24,10,24,0.00
2013-1-22,64.0,48.5,35.3,53.2,43.1,30.4,97,82,66,30.34,30.21,18,9,18,0.00
2013-1-23,72.4,59.4,48.4,61.4,56.5,48.4,100,91,68,30.31,30.10,31,13,31,0.00
2013-1-24,77.3,62.5,54.9,67.8,60.9,54.8,100,95,67,30.24,30.03,24,12,24,0.00
2013-1-25,61.8,50.9,45.5,61.8,49.9,44.6,100,97,89,30.23,29.99,22,10,22,0.00
2013-1-26,49.9,47.2,43.1,49.9,47.1,42.9,100,99,91,30.25,30.06,19,7,19,0.00
2013-1-27,75.3,62.3,47.7,70.7,60.2,47.7,100,94,71,30.15,29.91,41,16,41,0.00
2013-1-28,77.6,71.5,66.7,71.8,68.8,66.7,100,92,75,30.06,29.90,40,21,41,0.00
2013-1-29,77.7,66.5,53.1,99.9,65.0,-32.0,100,95,57,29.91,29.21,52,22,52,0.04
2013-1-30,56.2,47.8,39.2,99.9,36.6,-47.8,94,60,44,30.17,29.45,45,19,45,0.36
2013-1-31,68.9,49.4,33.6,37.6,32.4,27.9,86,56,28,30.36,29.79,40,14,40,0.00
2013-2-1,60.9,45.1,28.7,43.7,33.9,23.1,81,66,47,30.41,30.02,37,12,37,0.00
2013-2-2,66.8,55.2,44.8,52.1,44.0,39.1,100,69,39,30.34,29.83,22,11,22,0.00
2013-2-3,69.5,55.0,41.3,47.4,40.4,36.2,100,62,33,30.34,29.83,21,7,21,0.00
2013-2-4,69.8,59.6,54.4,62.4,53.0,38.8,100,80,53,30.03,29.56,32,13,32,0.00
2013-2-5,75.7,60.2,55.1,75.3,60.2,55.1,100,100,100,30.09,28.20,17,9,17,0.00
2013-2-6,83.8,62.7,54.6,83.7,61.7,54.6,100,97,74,30.15,29.47,24,12,24,0.00
2013-2-7,84.3,64.0,55.8,76.0,59.9,51.6,100,88,44,30.11,29.38,38,17,38,0.00
2013-2-8,66.7,52.9,43.4,52.8,42.2,35.4,96,70,37,30.27,29.71,30,13,30,0.00
2013-2-9,77.5,51.4,45.6,65.8,51.1,42.0,100,99,84,30.31,29.38,36,15,36,0.01
2013-2-10,76.4,60.0,48.9,72.3,46.7,33.6,100,66,31,30.06,29.29,52,13,52,0.44
2013-2-11,69.6,50.8,45.3,55.6,41.8,37.1,98,72,56,30.28,29.65,29,11,29,0.00
2013-2-12,65.7,50.5,44.4,65.0,50.5,44.4,100,100,98,30.20,28.76,23,10,23,0.48
2013-2-13,61.0,52.3,40.5,61.0,48.5,38.6,100,88,56,30.21,29.88,15,9,15,0.00
2013-2-14,69.6,50.9,36.2,45.7,39.7,34.8,100,71,31,30.16,30.04,18,7,18,0.00
2013-2-15,67.0,46.4,38.0,40.2,31.0,20.2,81,56,34,30.41,30.13,37,12,37,0.00
2013-2-16,55.3,42.7,11.6,33.5,28.8,-8.5,79,59,37,30.44,30.22,21,6,21,0.00
2013-2-17,69.8,53.9,37.6,47.8,36.1,29.9,83,55,26,30.22,29.98,44,18,44,0.00
2013-2-18,77.5,61.5,51.1,60.5,47.6,34.1,90,63,33,30.16,29.81,48,23,48,0.00
2013-2-19,60.4,50.5,39.1,34.4,30.3,25.8,79,48,28,30.36,30.16,23,10,23,0.00
2013-2-20,50.8,44.1,40.0,44.1,38.5,32.3,100,82,50,30.24,29.87,37,17,37,0.09
2013-2-21,66.8,52.4,42.3,54.4,42.2,35.6,100,72,33,29.99,29.67,43,14,43,0.16
2013-2-22,49.3,40.3,32.0,40.3,30.0,23.5,91,68,47,30.19,29.97,22,10,22,0.00
2013-2-23,55.7,41.8,29.3,32.7,29.1,26.0,90,63,38,30.14,29.99,20,8,20,0.00
2013-2-24,69.3,53.3,37.0,46.8,39.5,30.6,91,63,34,30.00,29.70,30,13,30,0.00
2013-2-25,61.6,51.5,40.3,56.9,41.7,31.1,99,71,36,29.71,29.53,46,22,46,0.05
2013-2-26,58.5,47.5,40.7,38.7,35.6,33.8,84,65,42,29.96,29.71,46,18,46,0.00
2013-2-27,58.8,46.4,36.0,37.0,30.8,24.2,92,58,31,30.26,29.94,30,16,30,0.00
2013-2-28,58.7,46.3,35.8,33.5,30.0,26.9,84,56,34,30.33,30.20,28,14,28,0.00
2013-3-1,55.5,44.1,34.8,34.5,31.7,27.8,88,63,44,30.34,30.23,25,10,25,0.00
2013-3-2,54.2,41.7,30.8,29.8,25.8,21.3,80,55,33,30.46,30.27,25,12,25,0.00
2013-3-3,69.0,52.9,34.3,46.0,33.2,24.8,78,50,31,30.27,29.88,41,19,42,0.00
2013-3-4,83.8,66.0,55.1,56.3,50.1,44.0,82,59,28,29.89,29.68,45,23,45,0.00
2013-3-5,66.0,51.0,43.0,53.5,30.1,22.1,74,47,27,30.41,29.82,43,18,43,0.00
2013-3-6,61.2,47.1,34.3,30.0,24.8,16.2,68,44,21,30.50,30.25,21,9,21,0.00
2013-3-7,70.9,55.7,41.6,37.6,31.0,21.8,56,40,26,30.30,30.15,31,13,31,0.00
2013-3-8,63.9,58.4,52.6,59.3,52.7,36.8,94,82,49,30.25,30.07,22,13,22,0.00
2013-3-9,69.3,64.1,59.5,68.0,62.2,57.5,100,94,87,30.07,29.73,38,19,38,0.04
2013-3-10,64.9,51.3,42.2,64.6,42.9,32.1,100,74,57,30.14,29.78,43,18,43,0.52
2013-3-11,58.5,45.7,35.4,34.1,29.2,22.5,88,56,26,30.17,30.06,22,9,22,0.00
2013-3-12,67.6,52.5,37.9,36.5,31.2,26.8,73,47,25,30.34,30.09,22,9,22,0.00
2013-3-13,69.3,55.8,43.2,39.0,36.3,32.6,75,50,32,30.48,30.35,28,8,28,0.00
2013-3-14,77.2,61.0,48.4,50.6,42.2,33.7,65,51,36,30.41,30.23,36,15,36,0.00
2013-3-15,80.3,65.6,51.3,57.6,51.0,45.3,100,64,34,30.23,29.97,43,17,43,0.00
2013-3-16,82.2,68.6,57.0,62.5,57.3,49.6,100,69,47,29.97,29.71,44,24,44,0.00
2013-3-17,75.5,67.9,59.0,64.9,59.7,52.1,96,77,51,29.86,29.67,37,14,37,0.00
2013-3-18,69.7,62.1,51.4,67.0,51.5,39.1,100,71,46,30.07,29.72,33,14,33,0.00
2013-3-19,67.7,56.5,44.1,45.8,40.5,36.1,89,58,39,30.18,30.02,31,11,31,0.00
2013-3-20,67.4,56.4,45.8,38.1,34.9,28.0,71,47,27,30.35,30.09,24,10,24,0.00
2013-3-21,69.0,59.2,48.6,59.0,44.5,32.9,78,59,42,30.09,29.67,45,19,45,0.00
2013-3-22,65.9,53.6,46.7,64.4,52.3,45.4,100,95,73,29.92,29.67,31,13,31,0.00
2013-3-23,55.2,49.7,46.4,53.5,49.3,46.4,100,99,91,29.96,29.73,32,10,32,0.04
2013-3-24,53.8,46.1,39.8,50.4,33.0,23.0,100,63,39,30.22,29.85,44,22,44,0.05
2013-3-25,55.2,43.7,32.7,27.7,23.0,18.0,74,46,26,30.44,30.22,31,14,31,0.00
2013-3-26,59.2,44.3,31.0,28.6,23.8,19.8,70,46,29,30.54,30.34,17,6,17,0.00
2013-3-27,71.6,54.2,37.2,43.5,34.4,24.9,65,49,30,30.37,30.10,37,15,37,0.00
2013-3-28,72.3,62.2,50.5,59.2,53.7,43.5,93,74,61,30.28,30.15,30,16,30,0.01
2013-3-29,77.2,67.4,60.2,62.5,59.8,58.5,96,78,56,30.25,30.10,32,16,32,0.00
2013-3-30,76.5,66.5,55.3,67.3,62.6,55.3,100,88,70,30.15,29.96,32,11,33,0.90
2013-3-31,74.2,66.4,58.0,66.0,60.0,51.1,100,82,56,30.04,29.88,41,12,41,0.50
2013-4-1,79.8,67.5,53.5,55.8,52.0,48.1,93,60,37,30.13,29.92,15,5,15,0.00
2013-4-2,72.8,65.5,51.2,66.5,59.5,42.8,96,81,69,30.08,29.96,37,15,37,0.00
2013-4-3,52.1,47.6,44.7,48.4,46.6,42.8,100,96,84,30.19,30.05,32,11,32,0.65
2013-4-4,50.9,45.8,42.0,45.7,43.5,41.9,100,92,78,30.24,30.15,22,11,22,0.02
2013-4-5,69.9,55.7,42.4,51.8,47.0,42.2,100,76,46,30.29,30.09,16,8,16,0.00
2013-4-6,75.3,63.9,53.3,60.7,55.2,50.6,96,75,50,30.10,29.92,45,20,45,0.00
2013-4-7,72.8,66.6,59.7,64.5,62.1,58.4,99,86,73,29.98,29.83,40,18,40,0.00
2013-4-8,76.2,70.8,64.6,67.6,64.8,61.1,94,82,71,29.85,29.75,45,24,45,0.00
2013-4-9,85.0,74.6,68.0,70.2,67.4,63.6,99,80,54,29.81,29.66,43,21,43,0.00
2013-4-10,73.6,49.3,40.4,72.2,48.2,37.4,100,96,84,30.02,29.77,38,19,38,0.36
2013-4-11,62.9,49.0,38.9,42.5,37.4,32.6,93,67,41,30.02,29.80,28,8,28,0.02
2013-4-12,77.8,60.1,44.6,52.6,46.2,40.6,96,64,34,30.06,29.86,16,6,16,0.00
2013-4-13,80.0,66.3,52.2,55.3,50.3,45.8,84,58,37,30.07,29.79,29,11,29,0.00
2013-4-14,80.8,68.9,56.0,67.8,60.5,48.8,97,75,59,29.86,29.57,34,14,35,0.00
2013-4-15,87.1,75.9,67.5,73.0,69.0,66.4,100,81,55,29.83,29.69,37,20,37,0.00
2013-4-16,88.2,78.0,71.1,71.4,69.6,67.2,97,77,53,29.97,29.80,30,14,30,0.00
2013-4-17,86.3,77.7,73.6,74.4,71.9,69.5,98,84,60,29.95,29.66,47,21,47,0.00
2013-4-18,75.3,56.1,45.8,74.2,50.0,34.8,100,81,55,30.19,29.64,48,20,49,1.35
2013-4-19,64.0,51.3,40.3,40.6,34.1,28.5,81,54,30,30.31,30.12,29,10,29,0.00
2013-4-20,72.2,57.6,42.2,44.1,40.0,36.4,85,55,30,30.26,30.00,31,11,31,0.00
2013-4-21,73.4,60.8,46.4,53.3,48.5,39.9,95,66,45,30.27,30.05,28,9,28,0.00
2013-4-22,78.5,66.0,52.7,62.9,56.0,47.3,87,71,56,30.17,29.85,34,12,35,0.00
2013-4-23,68.2,56.0,43.3,67.1,54.1,41.1,100,93,78,30.21,29.88,34,16,35,0.00
2013-4-24,61.6,50.0,40.1,41.5,39.0,35.5,98,69,44,30.34,30.18,31,13,31,0.01
2013-4-25,74.7,61.6,48.5,50.5,43.8,35.9,71,53,36,30.38,30.13,22,8,22,0.00
2013-4-26,78.0,67.0,57.8,70.5,59.6,46.4,92,78,56,30.23,30.04,28,10,28,0.00
2013-4-27,76.0,69.7,59.8,69.0,63.1,57.8,100,81,56,30.16,29.98,25,10,26,0.00
2013-4-28,83.0,67.1,53.6,69.3,61.9,53.6,100,85,58,30.10,29.85,18,6,18,0.00
2013-4-29,85.8,73.3,60.9,70.9,64.2,59.9,100,76,47,29.98,29.79,25,9,26,0.00
2013-4-30,83.2,71.4,60.9,68.9,64.3,58.5,100,80,54,29.91,29.74,25,9,26,0.00
2013-5-1,85.5,73.3,63.6,71.1,66.3,63.6,100,81,50,30.02,29.82,23,8,23,0.00
2013-5-2,66.9,53.1,43.1,65.1,50.7,37.7,100,92,78,30.36,29.99,39,18,39,0.05
2013-5-3,68.1,53.6,40.8,38.7,35.1,30.2,87,54,27,30.33,30.02,40,14,41,0.00
2013-5-4,74.5,58.9,43.9,46.5,37.7,29.3,81,49,22,30.08,29.87,38,12,38,0.00
2013-5-5,68.3,56.4,46.6,49.3,45.1,40.6,82,67,49,30.20,30.01,26,10,27,0.00
2013-5-6,79.5,64.6,50.8,57.8,53.4,48.1,100,70,42,30.17,29.98,17,5,17,0.00
2013-5-7,86.1,71.9,57.6,59.3,55.6,52.7,88,59,35,30.13,29.91,16,6,16,0.00
2013-5-8,86.8,73.9,62.4,64.0,59.7,55.6,86,63,40,30.07,29.87,31,12,31,0.00
2013-5-9,72.5,68.7,66.2,70.1,66.9,60.8,100,94,69,30.04,29.91,30,9,30,0.32
2013-5-10,81.3,70.9,64.0,70.7,65.6,61.2,100,85,58,30.09,29.91,18,6,19,0.00
2013-5-11,79.3,69.1,60.0,61.5,55.7,48.8,96,66,37,30.21,30.04,28,10,28,0.00
2013-5-12,80.1,67.9,55.3,55.5,45.3,37.1,74,47,23,30.31,30.12,24,8,24,0.00
2013-5-13,87.6,70.9,53.6,57.4,51.1,43.1,85,52,31,30.29,30.07,26,11,26,0.00
2013-5-14,87.4,73.6,59.7,65.3,59.0,50.7,99,64,35,30.22,29.97,31,12,31,0.00
2013-5-15,80.5,70.9,62.1,72.0,69.0,62.1,100,94,71,30.11,29.87,46,19,46,1.67
2013-5-16,81.9,70.1,62.0,75.7,68.5,62.0,100,95,78,29.94,29.75,32,10,32,0.16
2013-5-17,91.3,80.0,72.0,78.3,75.2,72.0,100,87,63,29.93,29.78,31,9,31,0.00
2013-5-18,93.1,81.7,71.9,77.0,74.1,70.8,100,79,55,29.98,29.77,34,15,35,0.00
2013-5-19,91.0,80.3,69.9,75.2,72.4,69.9,100,79,57,29.92,29.68,43,17,43,0.00
2013-5-20,90.5,81.0,74.0,76.7,73.5,72.2,95,79,59,29.89,29.67,43,16,43,0.00
2013-5-21,85.3,72.9,62.4,76.6,70.0,62.4,100,91,72,29.93,29.67,38,12,38,1.72
2013-5-22,86.2,70.7,58.0,69.3,63.4,58.0,100,81,46,30.01,29.82,15,4,15,0.00
2013-5-23,88.5,77.7,69.4,77.4,73.6,67.4,100,88,64,30.13,29.94,25,8,25,0.00
2013-5-24,88.6,78.4,68.6,77.7,74.1,67.0,100,88,65,30.24,30.05,24,8,24,0.56
2013-5-25,85.3,72.8,67.4,78.5,70.5,63.0,100,93,67,30.21,30.09,36,8,36,0.18
2013-5-26,88.3,78.4,70.2,76.8,73.5,70.2,100,86,61,30.14,29.92,30,12,30,0.13
2013-5-27,88.5,79.4,71.5,74.2,72.0,70.2,100,80,57,30.05,29.79,37,14,37,0.00
2013-5-28,88.3,79.4,71.4,73.9,70.6,67.0,98,76,53,29.96,29.83,40,17,41,0.00
2013-5-29,83.7,77.1,73.3,74.9,73.3,71.6,99,89,74,29.91,29.79,43,20,43,0.06
2013-5-30,89.7,80.6,74.5,78.9,75.4,73.0,98,85,66,29.87,29.70,40,21,41,0.00
2013-5-31,92.7,83.0,76.7,78.9,76.1,73.7,96,81,57,29.91,29.69,39,22,39,0.00
2013-6-1,89.5,80.2,75.6,79.8,75.6,72.7,94,86,68,30.00,29.79,39,17,40,0.00
2013-6-2,84.3,75.3,66.9,72.7,60.8,52.4,91,63,36,30.12,29.91,23,11,23,0.00
2013-6-3,91.0,76.1,61.6,68.0,63.5,58.8,96,68,38,30.05,29.82,17,8,17,0.00
2013-6-4,92.3,79.8,68.0,74.6,70.6,66.2,97,75,52,30.08,29.78,30,12,30,0.00
2013-6-5,93.8,81.8,71.6,75.7,73.0,68.5,99,77,48,30.01,29.76,34,9,35,0.00
2013-6-6,78.8,73.2,67.0,75.5,71.0,67.0,100,93,74,30.00,29.84,41,10,41,0.80
2013-6-7,84.8,74.3,64.3,68.4,62.0,56.6,100,70,41,30.06,29.90,21,8,22,0.00
2013-6-8,92.5,77.6,63.6,68.7,64.1,59.5,94,66,43,30.00,29.80,26,8,26,0.00
2013-6-9,90.7,78.7,69.6,75.8,71.1,65.9,100,80,51,30.01,29.84,36,7,36,0.17
2013-6-10,98.1,83.6,70.7,76.4,72.0,67.6,100,72,39,30.02,29.87,23,10,23,0.00
2013-6-11,95.6,84.3,74.0,78.7,75.0,70.7,100,76,51,30.09,29.90,28,13,28,0.00
2013-6-12,94.9,84.3,75.2,77.8,75.2,72.5,100,77,50,30.12,29.90,29,11,29,0.00
2013-6-13,99.0,85.9,74.2,77.2,74.7,70.2,99,72,44,30.11,29.87,18,7,18,0.00
2013-6-14,97.8,86.9,74.9,79.2,75.0,71.7,97,70,46,30.05,29.88,14,4,14,0.00
2013-6-15,93.3,82.1,71.8,81.1,76.4,70.5,100,84,62,30.07,29.92,47,6,48,0.03
2013-6-16,97.2,85.2,75.9,79.4,75.1,70.7,100,75,46,30.07,29.86,21,7,21,0.00
2013-6-17,91.5,80.9,69.5,80.7,76.1,69.5,100,86,65,30.11,29.87,41,8,42,0.59
2013-6-18,83.2,77.2,73.1,78.1,73.9,71.5,100,90,74,30.06,29.91,31,7,31,0.00
2013-6-19,94.6,81.3,70.5,79.4,75.0,70.5,100,83,54,30.06,29.91,18,6,19,0.00
2013-6-20,97.0,85.5,76.3,77.3,74.5,70.6,98,72,44,30.11,29.94,28,11,28,0.00
2013-6-21,97.5,85.7,74.8,78.0,74.2,70.7,98,71,43,30.14,29.95,26,13,27,0.00
2013-6-22,97.0,85.2,74.8,77.7,73.5,69.7,97,70,46,30.11,29.88,28,13,28,0.00
2013-6-23,97.0,85.6,75.2,77.3,73.1,69.1,96,69,42,30.07,29.88,30,13,30,0.00
2013-6-24,97.0,86.1,75.7,77.5,73.4,69.3,95,68,44,30.10,29.89,31,15,31,0.00
2013-6-25,98.2,86.9,76.0,77.5,73.1,68.4,95,66,40,30.06,29.82,40,17,40,0.00
2013-6-26,99.2,87.5,76.5,76.8,73.2,67.3,94,64,44,30.04,29.83,33,15,33,0.00
2013-6-27,101.2,88.0,77.0,78.6,73.8,69.5,88,65,38,30.08,29.87,24,8,24,0.00
2013-6-28,102.8,87.8,77.2,75.5,71.2,67.2,82,60,38,30.01,29.79,21,8,21,0.01
2013-6-29,97.5,87.7,78.4,74.0,66.6,61.6,75,52,32,29.96,29.79,26,10,26,0.00
2013-6-30,91.6,82.1,75.3,71.3,62.2,57.4,80,53,35,30.00,29.85,26,11,26,0.00
2013-7-1,88.2,78.2,68.8,65.0,61.8,59.0,80,59,39,30.08,29.94,23,11,23,0.00
2013-7-2,89.8,78.8,67.6,63.3,57.6,51.6,75,51,30,30.14,29.98,24,9,24,0.00
2013-7-3,93.1,79.9,67.2,64.8,57.9,51.9,73,50,26,30.12,29.92,14,5,14,0.00
2013-7-4,96.1,81.1,69.1,69.5,64.4,60.0,84,60,32,30.08,29.89,30,9,30,0.00
2013-7-5,97.8,82.8,68.2,70.6,66.5,62.9,94,62,34,30.07,29.86,21,8,21,0.00
2013-7-6,97.6,84.6,72.0,73.1,67.1,63.5,85,58,35,30.03,29.85,36,9,36,0.00
2013-7-7,99.4,86.4,74.6,76.6,70.8,65.2,87,62,37,30.07,29.90,20,9,20,0.00
2013-7-8,98.8,85.9,76.0,77.3,74.4,71.6,96,71,46,30.15,29.97,29,11,29,0.00
2013-7-9,100.3,87.7,76.1,77.3,71.0,65.1,92,61,34,30.19,29.96,24,11,24,0.00
2013-7-10,104.5,90.7,80.2,76.7,72.6,69.2,86,58,35,30.12,29.90,24,9,24,0.00
2013-7-11,102.8,86.9,77.8,76.8,73.7,69.7,91,67,38,30.04,29.96,41,8,41,0.00
2013-7-12,101.8,87.1,73.1,77.4,74.0,70.0,100,70,38,30.04,29.86,18,7,18,0.00
2013-7-13,99.2,87.3,76.5,74.7,69.4,62.7,86,58,38,30.07,29.86,23,10,23,0.00
2013-7-14,78.6,72.7,69.9,72.6,69.2,62.3,100,90,60,30.08,29.96,16,6,16,0.16
2013-7-15,77.0,72.0,67.8,74.8,71.2,67.8,100,97,88,30.16,30.02,20,7,21,0.23
2013-7-16,90.7,77.6,71.1,77.2,74.3,71.1,100,91,58,30.28,30.14,41,9,41,0.43
2013-7-17,92.2,79.9,71.3,80.1,74.1,71.3,100,84,55,30.28,30.11,24,8,24,0.16
2013-7-18,96.3,84.1,73.3,77.7,73.7,71.0,98,73,46,30.24,29.98,25,5,26,0.00
2013-7-19,93.5,80.2,75.0,79.7,75.5,71.5,100,87,52,30.11,30.00,23,6,23,0.13
2013-7-20,97.8,80.6,72.5,82.3,75.2,72.2,100,86,46,30.05,29.85,26,6,27,0.16
2013-7-21,97.5,84.3,73.2,79.8,75.3,72.1,100,78,46,30.00,29.83,33,11,33,0.00
2013-7-22,100.0,87.0,76.7,79.4,76.0,71.5,100,73,44,30.04,29.84,26,13,26,0.00
2013-7-23,100.6,88.2,78.3,80.6,75.7,67.2,97,69,41,30.04,29.81,30,14,30,0.00
2013-7-24,95.4,83.4,75.0,77.9,73.4,69.1,90,73,50,30.11,29.89,31,11,31,0.00
2013-7-25,96.4,84.3,72.5,79.3,74.7,72.2,100,75,50,30.11,29.96,17,7,18,0.00
2013-7-26,96.2,83.3,77.1,80.8,76.0,72.7,99,80,50,30.09,29.84,28,10,28,0.12
2013-7-27,90.5,79.5,71.5,75.7,70.5,66.3,98,76,46,30.08,29.88,27,11,27,0.00
2013-7-28,95.8,81.8,69.5,75.1,71.5,68.6,100,74,47,30.06,29.86,21,8,21,0.00
2013-7-29,98.5,86.4,77.0,78.9,74.2,63.5,98,70,40,30.07,29.90,32,14,32,0.00
2013-7-30,100.2,88.3,78.5,76.9,72.3,62.6,91,61,44,30.15,29.95,32,14,32,0.00
2013-7-31,103.2,89.3,77.8,76.3,72.4,67.4,86,60,37,30.12,29.89,23,9,23,0.00
2013-8-1,105.5,89.9,77.7,76.9,74.8,71.6,93,64,38,30.06,29.87,24,7,24,0.00
2013-8-2,104.3,90.6,78.4,76.1,73.0,68.5,88,60,34,30.02,29.85,25,11,25,0.00
2013-8-3,103.8,89.9,78.6,75.9,72.8,67.7,83,59,35,30.08,29.91,22,10,22,0.00
2013-8-4,102.2,89.5,78.5,77.1,73.6,68.2,92,63,35,30.13,29.90,21,9,21,0.00
2013-8-5,104.3,90.9,80.5,75.8,71.0,66.0,82,55,33,30.07,29.82,24,12,24,0.00
2013-8-6,105.0,91.2,78.4,74.7,71.3,66.8,84,55,33,30.13,29.77,27,13,27,0.00
2013-8-7,106.5,91.8,79.0,76.8,72.4,67.2,87,56,33,29.97,29.76,26,14,27,0.00
2013-8-8,104.0,90.8,79.1,77.2,72.1,68.0,90,57,35,29.96,29.76,25,12,25,0.00
2013-8-9,106.1,91.1,78.5,75.0,67.1,57.9,77,49,24,30.02,29.84,23,10,23,0.00
2013-8-10,101.0,88.2,75.1,78.5,73.2,64.5,99,64,43,30.11,29.93,18,9,18,0.00
2013-8-11,103.9,88.1,76.2,77.4,73.6,65.2,96,66,31,30.14,29.93,32,8,32,0.00
2013-8-12,100.5,88.3,77.0,76.7,73.4,69.2,93,64,38,30.12,29.90,20,9,20,0.00
2013-8-13,102.3,83.9,75.7,80.5,74.4,71.0,100,76,39,30.07,29.96,33,11,33,0.67
2013-8-14,89.4,80.6,75.5,79.1,75.3,71.0,100,85,63,30.08,29.94,24,9,25,0.00
2013-8-15,91.1,79.0,69.2,71.2,67.1,61.9,93,69,46,30.13,29.95,22,8,22,0.00
2013-8-16,88.7,77.4,68.2,71.7,66.0,61.8,100,70,46,30.13,29.94,43,8,43,0.05
2013-8-17,90.5,77.0,64.0,64.0,61.9,59.6,95,63,38,30.15,29.95,22,9,22,0.00
2013-8-18,93.5,79.8,67.0,70.4,64.2,59.9,94,62,36,30.16,29.97,20,8,20,0.00
2013-8-19,99.2,83.4,70.5,70.5,64.9,60.1,89,58,31,30.14,29.91,21,10,21,0.00
2013-8-20,99.5,84.0,70.5,68.7,64.2,61.6,82,54,31,30.11,29.93,17,6,17,0.00
2013-8-21,98.2,84.8,72.9,72.0,67.8,62.6,90,59,36,30.16,29.98,20,7,20,0.00
2013-8-22,101.3,87.9,74.7,75.2,71.0,67.6,90,60,37,30.15,29.91,27,8,27,0.00
2013-8-23,102.8,87.9,77.0,77.0,72.0,67.7,89,62,35,30.10,29.89,25,8,25,0.00
2013-8-24,101.3,88.3,76.3,74.9,70.9,63.5,87,59,35,30.12,29.96,29,9,29,0.00
2013-8-25,99.5,86.6,76.0,74.4,70.1,66.3,85,60,38,30.20,30.02,27,9,27,0.00
2013-8-26,98.0,85.5,73.7,73.9,69.8,63.6,93,63,34,30.23,30.03,32,11,32,0.00
2013-8-27,95.9,82.8,74.6,76.4,72.6,67.2,99,74,42,30.19,30.02,24,9,24,0.00
2013-8-28,100.1,85.7,73.4,75.7,70.6,66.7,93,65,37,30.16,29.97,19,6,19,0.00
2013-8-29,102.9,89.4,74.7,72.3,68.6,63.3,86,54,30,30.14,29.93,16,5,16,0.00
2013-8-30,104.8,90.4,77.0,73.6,68.0,65.0,80,50,30,30.08,29.85,24,7,24,0.00
2013-8-31,106.0,90.7,77.4,76.3,69.9,66.2,90,54,31,29.98,29.78,17,7,17,0.00
2013-9-1,103.8,90.5,78.7,74.8,71.0,67.2,82,55,31,29.96,29.77,27,9,27,0.00
2013-9-2,93.6,83.7,73.6,78.9,74.6,70.4,100,75,52,30.07,29.85,22,5,22,0.22
2013-9-3,100.8,87.4,75.0,77.2,70.5,65.3,88,60,35,30.06,29.85,16,7,16,0.00
2013-9-4,100.3,87.3,74.6,76.5,71.2,65.7,93,62,35,30.11,29.94,20,9,20,0.00
2013-9-5,100.8,87.1,74.8,75.5,68.6,62.1,83,57,30,30.17,29.97,20,7,20,0.00
2013-9-6,100.7,86.7,73.6,75.1,67.9,63.1,82,56,34,30.15,29.94,23,6,23,0.00
2013-9-7,101.8,87.4,76.1,75.7,69.8,63.6,89,59,33,30.11,29.89,29,8,29,0.00
2013-9-8,99.2,89.9,71.8,75.3,68.8,64.6,97,53,35,30.06,29.86,23,9,23,0.01
2013-9-9,97.8,84.6,72.4,74.0,69.2,64.7,94,63,37,30.08,29.90,24,9,24,0.00
2013-9-10,96.2,83.2,73.0,76.7,68.7,58.4,97,65,30,30.17,29.99,36,9,36,0.00
2013-9-11,99.0,83.3,73.4,77.5,70.9,64.7,93,68,41,30.19,29.99,47,6,47,0.02
2013-9-12,97.8,84.9,73.8,73.8,71.3,68.7,94,67,42,30.14,29.92,23,6,23,0.00
2013-9-13,96.0,85.4,75.6,75.6,71.7,67.6,89,66,41,30.04,29.84,20,8,20,0.00
2013-9-14,94.0,83.0,74.2,71.4,65.3,60.0,74,57,41,30.05,29.88,28,13,28,0.00
2013-9-15,96.2,83.5,72.2,72.8,66.6,60.5,68,58,43,30.10,29.95,20,8,20,0.00
2013-9-16,98.0,85.0,74.8,76.2,68.9,64.2,87,61,36,30.16,29.95,20,6,20,0.00
2013-9-17,96.3,86.0,77.0,73.1,69.3,64.7,78,59,38,30.15,30.01,22,7,22,0.00
2013-9-18,98.8,86.3,76.9,74.4,69.4,63.1,82,59,34,30.09,29.88,27,10,27,0.00
2013-9-19,90.9,82.2,75.7,77.8,74.1,67.1,100,78,55,30.07,29.88,22,7,22,0.30
2013-9-20,75.5,72.7,69.6,75.4,72.4,68.3,100,99,96,30.01,29.91,28,14,28,1.74
2013-9-21,83.8,72.3,61.5,67.9,55.9,49.4,95,61,32,30.04,29.85,24,12,25,0.00
2013-9-22,84.3,71.3,59.1,59.6,55.3,51.8,84,59,37,30.01,29.80,17,8,18,0.00
2013-9-23,88.0,72.6,58.3,62.7,57.8,54.7,91,63,36,29.94,29.75,19,8,19,0.00
2013-9-24,95.8,79.9,66.4,71.0,61.3,51.7,92,59,27,29.99,29.82,20,7,20,0.00
2013-9-25,96.5,79.3,61.8,63.1,55.7,48.8,91,48,24,29.98,29.77,12,5,12,0.00
2013-9-26,96.7,80.7,67.7,65.2,59.8,53.9,71,51,32,29.96,29.82,25,10,25,0.00
2013-9-27,89.5,79.2,67.3,75.2,69.3,62.1,91,72,59,30.02,29.92,26,12,26,0.00
2013-9-28,90.0,76.5,65.3,78.6,73.0,65.3,100,90,66,30.10,29.95,38,14,38,0.68
2013-9-29,84.2,72.2,64.0,65.8,61.1,52.4,100,72,38,30.11,29.90,22,8,22,0.01
2013-9-30,89.2,75.3,63.4,70.5,62.1,54.8,91,66,39,29.99,29.81,29,4,29,0.00
2013-10-1,92.0,79.5,71.4,75.1,72.1,66.2,100,81,44,30.02,29.86,21,10,21,0.00
2013-10-2,89.5,79.4,73.1,76.5,73.5,69.5,100,84,58,30.06,29.86,29,12,29,0.00
2013-10-3,92.2,80.5,73.0,77.5,74.0,71.2,100,83,53,30.01,29.82,27,14,27,0.00
2013-10-4,90.8,80.6,73.9,76.6,73.1,70.0,100,80,54,29.99,29.83,29,14,29,0.00
2013-10-5,77.6,65.2,51.4,75.1,62.2,45.0,100,91,63,30.16,29.94,31,15,31,0.24
2013-10-6,75.3,62.6,51.7,54.1,46.5,37.6,100,63,28,30.18,30.00,26,11,26,0.12
2013-10-7,82.8,67.3,53.6,52.1,45.1,38.3,86,49,25,30.21,30.04,18,7,18,0.00
2013-10-8,82.7,66.7,52.8,56.1,51.3,43.1,87,60,36,30.18,29.98,18,8,18,0.00
2013-10-9,84.5,68.3,54.5,62.3,57.1,53.7,99,71,40,30.15,29.97,20,9,20,0.00
2013-10-10,85.0,71.2,59.6,66.2,61.1,56.1,100,74,40,30.13,29.90,24,11,24,0.00
2013-10-11,87.5,75.8,66.6,74.2,70.2,64.0,100,84,62,30.02,29.90,30,16,30,0.00
2013-10-12,89.8,78.2,70.8,78.8,73.6,68.7,100,87,62,30.13,29.92,34,11,34,0.00
2013-10-13,77.0,71.7,68.3,72.9,70.0,68.2,100,95,82,30.26,30.11,22,8,22,0.00
2013-10-14,72.6,69.8,61.7,72.3,69.8,48.6,100,100,99,30.19,30.00,24,12,24,0.71
2013-10-15,77.9,67.1,53.5,75.6,66.9,53.5,100,99,92,30.11,29.98,26,15,26,2.23
2013-10-16,139.7,55.5,51.8,99.9,54.9,-41.2,100,93,23,31.00,24.01,248,13,248,0.27
2013-10-17,139.5,60.5,48.4,99.9,64.0,-29.5,100,49,41,31.00,24.38,248,12,248,0.00
2013-10-18,72.0,61.5,52.1,58.5,54.2,50.8,99,79,51,30.13,29.97,29,5,29,0.00
2013-10-19,66.8,53.8,43.0,52.8,43.4,39.3,93,71,40,30.26,30.08,29,12,29,0.00
2013-10-20,72.7,57.5,43.4,51.4,45.9,40.1,95,68,40,30.14,29.89,29,11,29,0.00
2013-10-21,72.7,61.0,52.7,65.7,56.6,49.3,100,86,73,30.16,29.97,29,12,29,0.00
2013-10-22,74.8,59.6,45.5,50.7,46.8,42.1,97,67,35,30.22,30.01,18,7,18,0.00
2013-10-23,83.5,65.8,50.3,57.5,51.5,46.8,95,64,34,30.18,30.01,14,5,14,0.00
2013-10-24,78.8,65.3,54.3,57.9,52.3,45.9,89,65,45,30.32,30.12,20,8,20,0.00
2013-10-25,69.3,57.6,50.2,49.9,46.8,40.8,93,68,49,30.45,30.24,32,12,32,0.00
2013-10-26,76.5,62.0,52.1,66.0,56.6,48.2,100,83,69,30.29,30.08,34,12,35,1.19
2013-10-27,70.5,63.0,58.8,65.2,60.5,58.3,100,92,71,30.18,30.06,15,4,15,0.06
2013-10-28,79.0,66.8,56.2,71.1,64.6,56.1,100,93,75,30.17,30.06,25,9,25,0.01
2013-10-29,75.8,72.2,68.8,72.4,70.7,68.5,100,95,88,30.14,30.06,27,15,27,0.00
2013-10-30,72.0,68.4,65.4,70.5,68.2,65.3,100,99,94,30.09,29.87,41,16,41,0.26
2013-10-31,136.3,68.7,58.8,99.9,59.3,-7.2,100,74,37,30.80,24.05,245,16,245,0.00
2013-11-1,77.3,62.8,50.6,57.3,51.2,45.8,99,69,44,30.12,29.82,23,9,23,0.00
2013-11-2,69.3,58.5,52.0,46.9,41.5,35.3,78,55,34,30.33,30.12,28,10,28,0.00
2013-11-3,67.5,55.3,43.0,48.8,43.2,36.3,86,66,43,30.26,30.06,37,12,37,0.00
2013-11-4,60.3,57.4,53.2,60.0,55.3,47.4,100,93,73,30.16,30.05,22,11,22,0.75
2013-11-5,68.9,64.4,60.0,68.6,64.4,60.0,100,100,100,30.12,30.00,23,12,23,0.31
2013-11-6,69.5,56.0,45.2,69.5,53.1,41.3,100,90,69,30.39,30.02,30,13,30,0.21
2013-11-7,64.1,51.7,40.6,99.9,42.7,-13.4,97,72,45,30.52,30.39,13,6,13,0.00
2013-11-8,67.2,55.4,44.0,49.8,45.8,40.9,98,73,40,30.41,30.18,26,8,26,0.00
2013-11-9,70.0,58.8,54.2,54.4,50.5,48.1,86,75,58,30.27,30.17,25,11,25,0.00
2013-11-10,69.2,58.5,53.6,51.8,49.0,43.8,88,72,43,30.45,30.14,14,5,14,0.00
2013-11-11,74.7,60.9,49.6,56.2,51.9,46.8,95,74,51,30.24,30.05,12,4,12,0.00
2013-11-12,60.4,46.5,34.5,58.4,33.4,22.7,94,62,38,30.61,30.28,38,20,38,0.00
2013-11-13,53.2,39.6,28.6,31.9,26.5,23.0,83,61,39,30.62,30.32,14,7,14,0.00
2013-11-14,60.9,53.8,37.1,48.2,38.6,26.9,87,58,35,30.32,30.00,24,14,24,0.00
2013-11-15,71.3,59.8,52.6,61.3,54.9,48.2,98,85,63,30.00,29.76,25,12,25,0.00
2013-11-16,74.4,68.8,61.8,72.8,67.1,61.3,100,94,80,29.85,29.68,41,20,41,0.00
2013-11-17,87.8,76.1,64.3,73.4,61.6,40.6,98,65,36,29.98,29.69,33,16,34,0.00
2013-11-18,70.3,62.1,53.7,42.3,37.0,33.1,53,40,27,30.14,29.98,25,12,27,0.00
2013-11-19,68.3,59.9,53.5,42.4,37.7,33.8,58,45,29,30.15,29.94,28,13,28,0.00
2013-11-20,65.2,60.9,49.9,54.7,48.3,35.8,84,63,52,30.01,29.89,22,11,22,0.00
2013-11-21,71.7,63.8,44.5,71.6,63.3,44.3,100,98,84,30.15,29.93,43,12,43,0.12
2013-11-22,44.4,36.6,34.4,44.1,36.6,34.4,100,100,100,30.38,30.14,37,19,37,0.13
2013-11-23,42.4,37.8,35.0,40.7,35.8,27.1,100,93,72,30.48,30.20,29,16,29,0.05
2013-11-24,36.3,33.7,31.2,29.5,27.1,24.3,85,77,66,30.52,30.30,27,13,27,0.00
2013-11-25,36.4,34.7,32.2,36.4,34.4,29.4,100,99,82,30.31,30.11,20,8,20,0.66
2013-11-26,51.7,41.5,35.3,39.2,34.4,25.7,100,78,49,30.32,30.07,37,17,37,0.00
2013-11-27,47.2,36.8,29.7,25.2,21.8,17.4,72,55,36,30.42,30.29,29,10,29,0.00
2013-11-28,52.9,38.3,27.9,34.8,28.0,22.6,94,68,43,30.41,30.31,18,6,18,0.00
2013-11-29,57.5,43.8,31.0,42.3,35.6,28.8,100,75,48,30.47,30.31,18,8,20,0.00
2013-11-30,67.3,52.2,40.2,54.6,45.7,35.6,99,80,54,30.32,30.12,30,12,30,0.00
2013-12-1,71.0,59.6,50.3,61.0,56.7,50.0,100,91,68,30.14,29.88,32,13,32,0.00
2013-12-2,72.2,56.5,44.9,59.9,51.9,44.9,100,87,51,29.87,29.59,15,6,15,0.00
2013-12-3,74.0,56.9,41.2,56.3,46.9,41.2,100,75,33,29.67,29.52,18,8,18,0.00
2013-12-4,80.0,63.0,47.2,65.7,56.2,38.6,100,80,54,29.85,29.59,28,13,28,0.00
2013-12-5,47.1,34.4,29.2,39.1,29.3,23.9,100,82,64,30.13,29.85,33,18,33,0.00
2013-12-6,32.4,27.5,23.3,32.4,27.4,22.5,100,99,97,30.45,30.07,24,2,24,0.00
2013-12-7,26.7,23.2,20.0,26.7,22.9,19.0,100,99,95,30.48,30.24,0,0,0,0.00
2013-12-8,33.3,30.4,26.0,33.3,30.4,26.0,100,100,100,30.23,30.02,0,0,0,0.03
2013-12-9,33.0,31.2,28.2,33.0,30.7,24.0,100,98,84,30.35,30.12,22,6,22,0.00
2013-12-10,39.8,27.8,21.2,29.2,23.7,19.7,95,85,63,30.47,30.31,18,7,18,0.20
2013-12-11,44.8,33.7,25.0,36.5,30.2,23.9,100,88,67,30.53,30.28,18,7,18,0.41
2013-12-12,51.4,38.1,26.0,35.5,31.5,25.8,100,79,52,30.56,30.27,13,6,15,0.00
2013-12-13,45.2,41.6,39.5,45.2,39.5,33.8,100,93,76,30.27,29.80,25,12,25,0.15
2013-12-14,47.7,41.0,34.0,46.2,38.6,29.7,100,91,76,30.28,29.78,33,14,33,0.03
2013-12-15,59.6,42.8,31.3,37.6,33.6,28.8,96,73,39,30.31,30.18,16,7,16,0.00
2013-12-16,66.0,48.6,35.4,43.0,37.9,33.9,95,70,40,30.22,30.12,22,11,22,0.00
2013-12-17,72.0,53.4,38.1,46.2,40.3,35.3,92,64,36,30.26,30.17,13,6,13,0.00
2013-12-18,69.9,55.1,41.2,49.9,44.3,39.0,95,69,41,30.22,30.00,32,13,33,0.00
2013-12-19,72.3,61.8,50.9,66.0,58.2,49.7,100,89,69,30.00,29.75,39,20,41,0.00
2013-12-20,69.2,58.1,36.2,67.4,56.9,36.1,100,96,81,29.85,29.74,37,15,37,0.00
2013-12-21,57.4,44.4,35.0,54.6,44.4,34.9,100,100,100,29.76,29.52,26,8,26,1.41
2013-12-22,49.3,37.0,29.9,49.0,34.0,28.0,100,89,70,30.35,29.75,24,14,24,0.01
2013-12-23,46.6,34.1,25.8,34.3,29.4,25.4,100,84,58,30.51,30.33,17,8,17,0.00
2013-12-24,51.2,37.1,24.7,37.3,31.7,24.6,100,82,57,30.50,30.23,26,10,26,0.00
2013-12-25,59.2,43.6,34.0,46.0,37.6,31.1,95,80,61,30.37,30.24,21,10,21,0.00
2013-12-26,54.8,42.0,32.2,41.7,37.1,32.2,100,84,59,30.41,30.29,11,5,11,0.00
2013-12-27,59.1,46.7,35.4,44.4,39.4,34.6,100,78,50,30.41,30.29,11,5,11,0.00
2013-12-28,60.9,48.5,38.1,45.8,40.4,36.3,100,76,49,30.28,29.96,21,8,21,0.00
2013-12-29,52.4,40.8,32.0,45.0,35.1,26.0,91,80,72,30.24,29.93,26,12,26,0.00
2013-12-30,44.9,35.2,28.9,26.9,24.1,20.3,79,65,47,30.37,30.20,19,9,19,0.00
2013-12-31,53.9,39.9,27.7,31.7,28.0,24.3,92,65,40,30.40,30.18,21,8,21,0.00
2014-1-1,65.9,47.6,32.9,52.5,39.8,29.3,98,76,53,30.19,29.85,41,20,41,0.00
2014-1-2,41.6,32.7,24.7,29.0,21.7,18.8,83,65,46,30.42,30.15,38,16,38,0.00